sensor_id;sensor_type;location;lat;lon;timestamp;P1;durP1;ratioP1;P2;durP2;ratioP2
23743;SDS011;12052;53.478;10.182;2023-02-08T00:00:48;29.65;;;13.68;;
23743;SDS011;12052;53.478;10.182;2023-02-08T00:03:14;26.05;;;13.27;;
23743;SDS011;12052;53.478;10.182;2023-02-08T00:05:40;28.70;;;12.80;;
23743;SDS011;12052;53.478;10.182;2023-02-08T00:08:06;32.10;;;14.50;;
23743;SDS011;12052;53.478;10.182;2023-02-08T00:10:32;30.27;;;14.95;;
23743;SDS011;12052;53.478;10.182;2023-02-08T00:12:57;30.92;;;15.30;;
23743;SDS011;12052;53.478;10.182;2023-02-08T00:15:23;27.40;;;12.88;;
23743;SDS011;12052;53.478;10.182;2023-02-08T00:17:49;28.95;;;13.40;;
23743;SDS011;12052;53.478;10.182;2023-02-08T00:22:40;31.60;;;14.30;;
23743;SDS011;12052;53.478;10.182;2023-02-08T00:25:06;32.20;;;13.63;;
23743;SDS011;12052;53.478;10.182;2023-02-08T00:27:32;34.95;;;14.02;;
23743;SDS011;12052;53.478;10.182;2023-02-08T00:29:58;29.55;;;13.30;;
23743;SDS011;12052;53.478;10.182;2023-02-08T00:32:24;30.33;;;13.30;;
23743;SDS011;12052;53.478;10.182;2023-02-08T00:34:49;28.63;;;12.82;;
23743;SDS011;12052;53.478;10.182;2023-02-08T00:37:15;31.15;;;14.38;;
23743;SDS011;12052;53.478;10.182;2023-02-08T00:39:41;33.92;;;14.10;;
23743;SDS011;12052;53.478;10.182;2023-02-08T00:42:06;28.42;;;13.93;;
23743;SDS011;12052;53.478;10.182;2023-02-08T00:44:32;32.75;;;13.95;;
23743;SDS011;12052;53.478;10.182;2023-02-08T00:46:58;29.42;;;13.15;;
23743;SDS011;12052;53.478;10.182;2023-02-08T00:49:23;27.98;;;13.05;;
23743;SDS011;12052;53.478;10.182;2023-02-08T00:51:49;25.27;;;12.02;;
23743;SDS011;12052;53.478;10.182;2023-02-08T00:54:15;30.33;;;12.85;;
23743;SDS011;12052;53.478;10.182;2023-02-08T00:56:42;29.10;;;12.57;;
23743;SDS011;12052;53.478;10.182;2023-02-08T00:59:08;30.02;;;11.68;;
23743;SDS011;12052;53.478;10.182;2023-02-08T01:01:34;31.85;;;12.48;;
23743;SDS011;12052;53.478;10.182;2023-02-08T01:04:00;28.65;;;13.05;;
23743;SDS011;12052;53.478;10.182;2023-02-08T01:06:26;28.00;;;13.13;;
23743;SDS011;12052;53.478;10.182;2023-02-08T01:08:52;31.15;;;13.85;;
23743;SDS011;12052;53.478;10.182;2023-02-08T01:11:20;31.05;;;12.95;;
23743;SDS011;12052;53.478;10.182;2023-02-08T01:13:49;33.28;;;13.07;;
23743;SDS011;12052;53.478;10.182;2023-02-08T01:16:22;33.15;;;13.95;;
23743;SDS011;12052;53.478;10.182;2023-02-08T01:18:50;28.33;;;13.55;;
23743;SDS011;12052;53.478;10.182;2023-02-08T01:21:19;31.90;;;12.90;;
23743;SDS011;12052;53.478;10.182;2023-02-08T01:23:47;33.17;;;13.88;;
23743;SDS011;12052;53.478;10.182;2023-02-08T01:26:14;26.88;;;12.38;;
23743;SDS011;12052;53.478;10.182;2023-02-08T01:28:41;28.13;;;13.05;;
23743;SDS011;12052;53.478;10.182;2023-02-08T01:31:08;31.27;;;14.02;;
23743;SDS011;12052;53.478;10.182;2023-02-08T01:33:36;29.92;;;14.38;;
23743;SDS011;12052;53.478;10.182;2023-02-08T01:36:02;29.83;;;14.25;;
23743;SDS011;12052;53.478;10.182;2023-02-08T01:38:28;32.88;;;14.77;;
23743;SDS011;12052;53.478;10.182;2023-02-08T01:40:54;28.77;;;13.38;;
23743;SDS011;12052;53.478;10.182;2023-02-08T01:43:25;31.42;;;13.70;;
23743;SDS011;12052;53.478;10.182;2023-02-08T01:45:55;31.67;;;13.15;;
23743;SDS011;12052;53.478;10.182;2023-02-08T01:48:23;31.38;;;13.88;;
23743;SDS011;12052;53.478;10.182;2023-02-08T01:53:20;30.60;;;12.98;;
23743;SDS011;12052;53.478;10.182;2023-02-08T01:55:50;22.35;;;12.63;;
23743;SDS011;12052;53.478;10.182;2023-02-08T01:58:18;34.85;;;14.45;;
23743;SDS011;12052;53.478;10.182;2023-02-08T02:00:45;26.13;;;13.15;;
23743;SDS011;12052;53.478;10.182;2023-02-08T02:03:11;24.98;;;13.48;;
23743;SDS011;12052;53.478;10.182;2023-02-08T02:05:42;30.55;;;14.20;;
23743;SDS011;12052;53.478;10.182;2023-02-08T02:08:10;33.70;;;13.73;;
23743;SDS011;12052;53.478;10.182;2023-02-08T02:10:37;33.53;;;13.23;;
23743;SDS011;12052;53.478;10.182;2023-02-08T02:13:11;30.38;;;13.45;;
23743;SDS011;12052;53.478;10.182;2023-02-08T02:15:41;35.47;;;13.15;;
23743;SDS011;12052;53.478;10.182;2023-02-08T02:18:07;26.10;;;13.27;;
23743;SDS011;12052;53.478;10.182;2023-02-08T02:23:53;30.95;;;13.23;;
23743;SDS011;12052;53.478;10.182;2023-02-08T02:31:46;27.80;;;12.77;;
23743;SDS011;12052;53.478;10.182;2023-02-08T02:39:52;37.40;;;14.10;;
23743;SDS011;12052;53.478;10.182;2023-02-08T02:45:49;32.30;;;13.60;;
23743;SDS011;12052;53.478;10.182;2023-02-08T02:48:55;33.92;;;13.63;;
23743;SDS011;12052;53.478;10.182;2023-02-08T02:54:39;29.95;;;13.68;;
23743;SDS011;12052;53.478;10.182;2023-02-08T02:56:49;33.30;;;13.60;;
23743;SDS011;12052;53.478;10.182;2023-02-08T02:59:19;30.58;;;12.93;;
23743;SDS011;12052;53.478;10.182;2023-02-08T03:01:46;31.90;;;13.57;;
23743;SDS011;12052;53.478;10.182;2023-02-08T03:04:17;35.97;;;13.73;;
23743;SDS011;12052;53.478;10.182;2023-02-08T03:20:41;32.55;;;13.05;;
23743;SDS011;12052;53.478;10.182;2023-02-08T03:23:18;35.60;;;12.85;;
23743;SDS011;12052;53.478;10.182;2023-02-08T03:25:59;30.83;;;14.52;;
23743;SDS011;12052;53.478;10.182;2023-02-08T03:31:12;35.28;;;13.77;;
23743;SDS011;12052;53.478;10.182;2023-02-08T03:33:49;33.30;;;14.70;;
23743;SDS011;12052;53.478;10.182;2023-02-08T03:39:07;32.53;;;14.20;;
23743;SDS011;12052;53.478;10.182;2023-02-08T03:41:37;31.45;;;13.68;;
23743;SDS011;12052;53.478;10.182;2023-02-08T03:44:10;31.17;;;13.07;;
23743;SDS011;12052;53.478;10.182;2023-02-08T03:46:41;31.88;;;13.20;;
23743;SDS011;12052;53.478;10.182;2023-02-08T03:49:13;31.63;;;13.02;;
23743;SDS011;12052;53.478;10.182;2023-02-08T03:51:42;33.42;;;13.75;;
23743;SDS011;12052;53.478;10.182;2023-02-08T03:54:11;33.10;;;13.48;;
23743;SDS011;12052;53.478;10.182;2023-02-08T03:56:49;31.65;;;14.57;;
23743;SDS011;12052;53.478;10.182;2023-02-08T03:59:20;31.33;;;13.38;;
23743;SDS011;12052;53.478;10.182;2023-02-08T04:01:52;35.60;;;14.63;;
23743;SDS011;12052;53.478;10.182;2023-02-08T04:04:25;27.08;;;13.15;;
23743;SDS011;12052;53.478;10.182;2023-02-08T04:06:53;28.85;;;13.68;;
23743;SDS011;12052;53.478;10.182;2023-02-08T04:09:19;29.38;;;13.68;;
23743;SDS011;12052;53.478;10.182;2023-02-08T04:11:45;37.08;;;12.93;;
23743;SDS011;12052;53.478;10.182;2023-02-08T04:14:10;31.88;;;13.98;;
23743;SDS011;12052;53.478;10.182;2023-02-08T04:16:36;29.40;;;14.23;;
23743;SDS011;12052;53.478;10.182;2023-02-08T04:19:02;28.70;;;12.98;;
23743;SDS011;12052;53.478;10.182;2023-02-08T04:21:27;30.50;;;13.05;;
23743;SDS011;12052;53.478;10.182;2023-02-08T04:23:53;34.25;;;15.18;;
23743;SDS011;12052;53.478;10.182;2023-02-08T04:26:18;38.63;;;13.07;;
23743;SDS011;12052;53.478;10.182;2023-02-08T04:28:44;32.22;;;12.93;;
23743;SDS011;12052;53.478;10.182;2023-02-08T04:31:09;34.83;;;14.60;;
23743;SDS011;12052;53.478;10.182;2023-02-08T04:33:35;34.22;;;14.63;;
23743;SDS011;12052;53.478;10.182;2023-02-08T04:36:00;38.13;;;14.88;;
23743;SDS011;12052;53.478;10.182;2023-02-08T04:38:26;38.95;;;13.95;;
23743;SDS011;12052;53.478;10.182;2023-02-08T04:40:52;38.33;;;16.27;;
23743;SDS011;12052;53.478;10.182;2023-02-08T04:43:17;39.28;;;15.38;;
23743;SDS011;12052;53.478;10.182;2023-02-08T04:45:43;33.45;;;14.07;;
23743;SDS011;12052;53.478;10.182;2023-02-08T04:48:08;34.10;;;14.35;;
23743;SDS011;12052;53.478;10.182;2023-02-08T04:50:34;32.83;;;14.88;;
23743;SDS011;12052;53.478;10.182;2023-02-08T04:52:59;45.45;;;17.05;;
23743;SDS011;12052;53.478;10.182;2023-02-08T04:55:25;44.17;;;16.60;;
23743;SDS011;12052;53.478;10.182;2023-02-08T04:57:51;32.00;;;15.32;;
23743;SDS011;12052;53.478;10.182;2023-02-08T05:00:16;34.13;;;14.40;;
23743;SDS011;12052;53.478;10.182;2023-02-08T05:02:43;35.22;;;15.13;;
23743;SDS011;12052;53.478;10.182;2023-02-08T05:05:09;43.33;;;16.33;;
23743;SDS011;12052;53.478;10.182;2023-02-08T05:07:34;38.80;;;16.05;;
23743;SDS011;12052;53.478;10.182;2023-02-08T05:10:00;38.47;;;15.63;;
23743;SDS011;12052;53.478;10.182;2023-02-08T05:12:26;34.08;;;14.55;;
23743;SDS011;12052;53.478;10.182;2023-02-08T05:14:52;50.97;;;15.85;;
23743;SDS011;12052;53.478;10.182;2023-02-08T05:17:17;41.60;;;15.23;;
23743;SDS011;12052;53.478;10.182;2023-02-08T05:19:43;34.72;;;14.60;;
23743;SDS011;12052;53.478;10.182;2023-02-08T05:22:08;34.28;;;14.07;;
23743;SDS011;12052;53.478;10.182;2023-02-08T05:24:34;33.60;;;14.25;;
23743;SDS011;12052;53.478;10.182;2023-02-08T05:27:00;33.85;;;15.40;;
23743;SDS011;12052;53.478;10.182;2023-02-08T05:29:25;38.20;;;14.98;;
23743;SDS011;12052;53.478;10.182;2023-02-08T05:31:51;35.35;;;14.38;;
23743;SDS011;12052;53.478;10.182;2023-02-08T05:34:16;33.15;;;14.65;;
23743;SDS011;12052;53.478;10.182;2023-02-08T05:36:42;42.80;;;14.93;;
23743;SDS011;12052;53.478;10.182;2023-02-08T05:39:07;38.38;;;15.82;;
23743;SDS011;12052;53.478;10.182;2023-02-08T05:41:33;34.72;;;13.98;;
23743;SDS011;12052;53.478;10.182;2023-02-08T05:43:58;41.63;;;15.95;;
23743;SDS011;12052;53.478;10.182;2023-02-08T05:46:24;35.83;;;15.23;;
23743;SDS011;12052;53.478;10.182;2023-02-08T05:48:50;37.17;;;15.52;;
23743;SDS011;12052;53.478;10.182;2023-02-08T05:51:15;28.02;;;13.70;;
23743;SDS011;12052;53.478;10.182;2023-02-08T05:53:41;41.60;;;16.15;;
23743;SDS011;12052;53.478;10.182;2023-02-08T05:56:08;37.90;;;15.05;;
23743;SDS011;12052;53.478;10.182;2023-02-08T05:58:33;35.35;;;15.43;;
23743;SDS011;12052;53.478;10.182;2023-02-08T06:00:59;28.83;;;13.40;;
23743;SDS011;12052;53.478;10.182;2023-02-08T06:03:25;30.83;;;13.05;;
23743;SDS011;12052;53.478;10.182;2023-02-08T06:05:51;33.30;;;13.00;;
23743;SDS011;12052;53.478;10.182;2023-02-08T06:08:17;36.78;;;13.43;;
23743;SDS011;12052;53.478;10.182;2023-02-08T06:10:43;34.80;;;14.02;;
23743;SDS011;12052;53.478;10.182;2023-02-08T06:13:09;30.17;;;14.27;;
23743;SDS011;12052;53.478;10.182;2023-02-08T06:15:35;33.35;;;13.70;;
23743;SDS011;12052;53.478;10.182;2023-02-08T06:18:01;33.40;;;13.20;;
23743;SDS011;12052;53.478;10.182;2023-02-08T06:20:27;31.80;;;13.93;;
23743;SDS011;12052;53.478;10.182;2023-02-08T06:22:53;32.72;;;14.88;;
23743;SDS011;12052;53.478;10.182;2023-02-08T06:25:19;38.80;;;15.07;;
23743;SDS011;12052;53.478;10.182;2023-02-08T06:27:45;35.50;;;15.23;;
23743;SDS011;12052;53.478;10.182;2023-02-08T06:30:11;32.53;;;15.25;;
23743;SDS011;12052;53.478;10.182;2023-02-08T06:32:37;33.95;;;14.98;;
23743;SDS011;12052;53.478;10.182;2023-02-08T06:35:02;41.97;;;14.75;;
23743;SDS011;12052;53.478;10.182;2023-02-08T06:37:28;43.22;;;16.13;;
23743;SDS011;12052;53.478;10.182;2023-02-08T06:39:53;50.28;;;16.27;;
23743;SDS011;12052;53.478;10.182;2023-02-08T06:42:19;46.75;;;16.77;;
23743;SDS011;12052;53.478;10.182;2023-02-08T06:44:44;42.25;;;16.55;;
23743;SDS011;12052;53.478;10.182;2023-02-08T06:47:12;35.80;;;16.27;;
23743;SDS011;12052;53.478;10.182;2023-02-08T06:49:37;45.92;;;17.40;;
23743;SDS011;12052;53.478;10.182;2023-02-08T06:52:03;43.95;;;16.85;;
23743;SDS011;12052;53.478;10.182;2023-02-08T06:54:29;41.05;;;16.63;;
23743;SDS011;12052;53.478;10.182;2023-02-08T06:56:54;43.55;;;14.00;;
23743;SDS011;12052;53.478;10.182;2023-02-08T06:59:20;36.83;;;15.02;;
23743;SDS011;12052;53.478;10.182;2023-02-08T07:01:45;39.92;;;16.45;;
23743;SDS011;12052;53.478;10.182;2023-02-08T07:04:11;49.33;;;16.35;;
23743;SDS011;12052;53.478;10.182;2023-02-08T07:06:36;44.58;;;17.08;;
23743;SDS011;12052;53.478;10.182;2023-02-08T07:09:02;42.75;;;17.55;;
23743;SDS011;12052;53.478;10.182;2023-02-08T07:11:28;51.45;;;17.83;;
23743;SDS011;12052;53.478;10.182;2023-02-08T07:13:54;39.67;;;15.55;;
23743;SDS011;12052;53.478;10.182;2023-02-08T07:16:19;41.72;;;17.08;;
23743;SDS011;12052;53.478;10.182;2023-02-08T07:18:45;48.38;;;17.95;;
23743;SDS011;12052;53.478;10.182;2023-02-08T07:21:11;46.42;;;17.35;;
23743;SDS011;12052;53.478;10.182;2023-02-08T07:23:37;47.58;;;17.00;;
23743;SDS011;12052;53.478;10.182;2023-02-08T07:26:07;46.65;;;17.88;;
23743;SDS011;12052;53.478;10.182;2023-02-08T07:31:08;45.70;;;17.10;;
23743;SDS011;12052;53.478;10.182;2023-02-08T07:33:37;49.67;;;17.92;;
23743;SDS011;12052;53.478;10.182;2023-02-08T07:36:02;48.00;;;18.25;;
23743;SDS011;12052;53.478;10.182;2023-02-08T07:38:29;49.10;;;18.15;;
23743;SDS011;12052;53.478;10.182;2023-02-08T07:41:03;48.28;;;17.60;;
23743;SDS011;12052;53.478;10.182;2023-02-08T07:43:34;55.67;;;19.33;;
23743;SDS011;12052;53.478;10.182;2023-02-08T07:46:04;53.28;;;18.63;;
23743;SDS011;12052;53.478;10.182;2023-02-08T07:48:40;51.88;;;19.15;;
23743;SDS011;12052;53.478;10.182;2023-02-08T07:51:07;52.63;;;18.30;;
23743;SDS011;12052;53.478;10.182;2023-02-08T07:53:33;51.25;;;18.48;;
23743;SDS011;12052;53.478;10.182;2023-02-08T07:55:59;64.60;;;20.27;;
23743;SDS011;12052;53.478;10.182;2023-02-08T07:58:25;51.83;;;19.90;;
23743;SDS011;12052;53.478;10.182;2023-02-08T08:00:51;55.50;;;22.33;;
23743;SDS011;12052;53.478;10.182;2023-02-08T08:03:17;48.38;;;20.73;;
23743;SDS011;12052;53.478;10.182;2023-02-08T08:05:43;63.70;;;22.63;;
23743;SDS011;12052;53.478;10.182;2023-02-08T08:08:09;49.78;;;17.90;;
23743;SDS011;12052;53.478;10.182;2023-02-08T08:10:35;59.85;;;21.40;;
23743;SDS011;12052;53.478;10.182;2023-02-08T08:13:01;55.33;;;22.33;;
23743;SDS011;12052;53.478;10.182;2023-02-08T08:15:27;62.70;;;22.15;;
23743;SDS011;12052;53.478;10.182;2023-02-08T08:17:53;55.30;;;20.02;;
23743;SDS011;12052;53.478;10.182;2023-02-08T08:20:18;56.63;;;20.85;;
23743;SDS011;12052;53.478;10.182;2023-02-08T08:22:44;52.47;;;21.65;;
23743;SDS011;12052;53.478;10.182;2023-02-08T08:25:10;53.42;;;21.35;;
23743;SDS011;12052;53.478;10.182;2023-02-08T08:27:36;62.67;;;21.85;;
23743;SDS011;12052;53.478;10.182;2023-02-08T08:30:02;61.50;;;21.40;;
23743;SDS011;12052;53.478;10.182;2023-02-08T08:32:30;58.55;;;22.33;;
23743;SDS011;12052;53.478;10.182;2023-02-08T08:34:55;60.75;;;23.23;;
23743;SDS011;12052;53.478;10.182;2023-02-08T08:37:21;62.47;;;21.92;;
23743;SDS011;12052;53.478;10.182;2023-02-08T08:39:46;61.28;;;22.45;;
23743;SDS011;12052;53.478;10.182;2023-02-08T08:42:12;60.03;;;22.95;;
23743;SDS011;12052;53.478;10.182;2023-02-08T08:44:37;54.40;;;22.33;;
23743;SDS011;12052;53.478;10.182;2023-02-08T08:47:03;52.10;;;20.50;;
23743;SDS011;12052;53.478;10.182;2023-02-08T08:49:29;64.93;;;22.75;;
23743;SDS011;12052;53.478;10.182;2023-02-08T08:51:55;66.43;;;22.38;;
23743;SDS011;12052;53.478;10.182;2023-02-08T08:54:22;75.93;;;24.38;;
23743;SDS011;12052;53.478;10.182;2023-02-08T08:56:47;49.03;;;19.38;;
23743;SDS011;12052;53.478;10.182;2023-02-08T08:59:13;67.07;;;23.35;;
23743;SDS011;12052;53.478;10.182;2023-02-08T09:01:39;50.90;;;20.92;;
23743;SDS011;12052;53.478;10.182;2023-02-08T09:04:06;58.95;;;22.45;;
23743;SDS011;12052;53.478;10.182;2023-02-08T09:06:33;56.35;;;22.55;;
23743;SDS011;12052;53.478;10.182;2023-02-08T09:08:59;62.88;;;21.05;;
23743;SDS011;12052;53.478;10.182;2023-02-08T09:11:24;60.00;;;21.25;;
23743;SDS011;12052;53.478;10.182;2023-02-08T09:13:50;58.85;;;21.55;;
23743;SDS011;12052;53.478;10.182;2023-02-08T09:16:17;75.72;;;23.60;;
23743;SDS011;12052;53.478;10.182;2023-02-08T09:18:43;54.28;;;21.67;;
23743;SDS011;12052;53.478;10.182;2023-02-08T09:21:11;59.08;;;20.98;;
23743;SDS011;12052;53.478;10.182;2023-02-08T09:23:38;61.13;;;23.83;;
23743;SDS011;12052;53.478;10.182;2023-02-08T09:26:04;60.72;;;21.23;;
23743;SDS011;12052;53.478;10.182;2023-02-08T09:28:31;58.30;;;21.27;;
23743;SDS011;12052;53.478;10.182;2023-02-08T09:30:57;60.75;;;23.00;;
23743;SDS011;12052;53.478;10.182;2023-02-08T09:33:25;49.10;;;20.10;;
23743;SDS011;12052;53.478;10.182;2023-02-08T09:35:51;58.47;;;22.13;;
23743;SDS011;12052;53.478;10.182;2023-02-08T09:38:17;54.05;;;20.88;;
23743;SDS011;12052;53.478;10.182;2023-02-08T09:46:21;56.45;;;21.92;;
23743;SDS011;12052;53.478;10.182;2023-02-08T09:48:49;61.15;;;21.02;;
23743;SDS011;12052;53.478;10.182;2023-02-08T09:51:22;55.45;;;20.48;;
23743;SDS011;12052;53.478;10.182;2023-02-08T09:53:57;58.17;;;21.52;;
23743;SDS011;12052;53.478;10.182;2023-02-08T09:56:34;56.05;;;21.70;;
23743;SDS011;12052;53.478;10.182;2023-02-08T09:59:05;50.42;;;20.23;;
23743;SDS011;12052;53.478;10.182;2023-02-08T10:01:36;54.58;;;21.08;;
23743;SDS011;12052;53.478;10.182;2023-02-08T10:04:18;56.03;;;21.60;;
23743;SDS011;12052;53.478;10.182;2023-02-08T10:06:52;58.70;;;21.50;;
23743;SDS011;12052;53.478;10.182;2023-02-08T10:09:19;58.17;;;20.50;;
23743;SDS011;12052;53.478;10.182;2023-02-08T10:36:35;50.97;;;20.58;;
23743;SDS011;12052;53.478;10.182;2023-02-08T10:39:09;53.03;;;18.85;;
23743;SDS011;12052;53.478;10.182;2023-02-08T10:41:40;60.03;;;21.13;;
23743;SDS011;12052;53.478;10.182;2023-02-08T10:46:46;54.70;;;19.83;;
23743;SDS011;12052;53.478;10.182;2023-02-08T10:49:31;45.17;;;18.02;;
23743;SDS011;12052;53.478;10.182;2023-02-08T10:52:01;47.30;;;18.00;;
23743;SDS011;12052;53.478;10.182;2023-02-08T10:54:26;43.13;;;16.00;;
23743;SDS011;12052;53.478;10.182;2023-02-08T10:59:30;46.15;;;17.88;;
23743;SDS011;12052;53.478;10.182;2023-02-08T11:05:03;43.35;;;18.17;;
23743;SDS011;12052;53.478;10.182;2023-02-08T11:07:33;47.33;;;17.83;;
23743;SDS011;12052;53.478;10.182;2023-02-08T11:12:40;45.88;;;17.35;;
23743;SDS011;12052;53.478;10.182;2023-02-08T11:15:20;49.67;;;18.75;;
23743;SDS011;12052;53.478;10.182;2023-02-08T11:17:52;38.10;;;15.95;;
23743;SDS011;12052;53.478;10.182;2023-02-08T11:20:20;44.50;;;18.17;;
23743;SDS011;12052;53.478;10.182;2023-02-08T11:22:49;40.80;;;16.55;;
23743;SDS011;12052;53.478;10.182;2023-02-08T11:25:29;37.70;;;15.38;;
23743;SDS011;12052;53.478;10.182;2023-02-08T11:28:03;35.95;;;14.63;;
23743;SDS011;12052;53.478;10.182;2023-02-08T11:30:30;48.60;;;16.63;;
23743;SDS011;12052;53.478;10.182;2023-02-08T11:35:56;40.20;;;15.15;;
23743;SDS011;12052;53.478;10.182;2023-02-08T11:38:28;38.33;;;14.70;;
23743;SDS011;12052;53.478;10.182;2023-02-08T11:40:56;44.47;;;15.30;;
23743;SDS011;12052;53.478;10.182;2023-02-08T11:45:51;44.38;;;15.75;;
23743;SDS011;12052;53.478;10.182;2023-02-08T11:48:23;40.55;;;15.45;;
23743;SDS011;12052;53.478;10.182;2023-02-08T11:51:00;46.13;;;15.68;;
23743;SDS011;12052;53.478;10.182;2023-02-08T11:53:29;36.78;;;15.48;;
23743;SDS011;12052;53.478;10.182;2023-02-08T11:56:04;39.17;;;14.85;;
23743;SDS011;12052;53.478;10.182;2023-02-08T11:58:38;41.95;;;14.60;;
23743;SDS011;12052;53.478;10.182;2023-02-08T12:01:05;35.90;;;15.73;;
23743;SDS011;12052;53.478;10.182;2023-02-08T12:03:41;41.10;;;14.40;;
23743;SDS011;12052;53.478;10.182;2023-02-08T12:11:49;40.63;;;16.17;;
23743;SDS011;12052;53.478;10.182;2023-02-08T12:18:05;33.25;;;14.35;;
23743;SDS011;12052;53.478;10.182;2023-02-08T12:20:41;34.45;;;13.90;;
23743;SDS011;12052;53.478;10.182;2023-02-08T12:39:47;31.65;;;11.88;;
23743;SDS011;12052;53.478;10.182;2023-02-08T12:51:34;30.45;;;12.52;;
23743;SDS011;12052;53.478;10.182;2023-02-08T12:56:59;27.02;;;9.95;;
23743;SDS011;12052;53.478;10.182;2023-02-08T12:59:46;23.40;;;9.77;;
23743;SDS011;12052;53.478;10.182;2023-02-08T13:02:23;27.67;;;10.50;;
23743;SDS011;12052;53.478;10.182;2023-02-08T13:04:55;25.10;;;11.60;;
23743;SDS011;12052;53.478;10.182;2023-02-08T13:07:30;32.42;;;11.63;;
23743;SDS011;12052;53.478;10.182;2023-02-08T13:10:02;24.15;;;9.93;;
23743;SDS011;12052;53.478;10.182;2023-02-08T13:12:37;22.90;;;9.65;;
23743;SDS011;12052;53.478;10.182;2023-02-08T13:15:18;30.27;;;11.60;;
23743;SDS011;12052;53.478;10.182;2023-02-08T13:17:50;27.27;;;11.35;;
23743;SDS011;12052;53.478;10.182;2023-02-08T13:20:30;36.25;;;11.57;;
23743;SDS011;12052;53.478;10.182;2023-02-08T13:23:51;21.85;;;9.88;;
23743;SDS011;12052;53.478;10.182;2023-02-08T13:26:05;24.40;;;11.00;;
23743;SDS011;12052;53.478;10.182;2023-02-08T13:28:35;24.40;;;10.77;;
23743;SDS011;12052;53.478;10.182;2023-02-08T13:31:03;26.85;;;10.40;;
23743;SDS011;12052;53.478;10.182;2023-02-08T13:33:39;23.90;;;9.35;;
23743;SDS011;12052;53.478;10.182;2023-02-08T13:36:31;26.00;;;10.23;;
23743;SDS011;12052;53.478;10.182;2023-02-08T13:38:58;25.83;;;9.50;;
23743;SDS011;12052;53.478;10.182;2023-02-08T13:41:25;24.88;;;11.00;;
23743;SDS011;12052;53.478;10.182;2023-02-08T13:44:02;21.55;;;8.73;;
23743;SDS011;12052;53.478;10.182;2023-02-08T13:46:36;25.92;;;9.98;;
23743;SDS011;12052;53.478;10.182;2023-02-08T13:49:39;27.33;;;10.23;;
23743;SDS011;12052;53.478;10.182;2023-02-08T13:52:07;27.38;;;10.80;;
23743;SDS011;12052;53.478;10.182;2023-02-08T13:54:34;23.35;;;9.45;;
23743;SDS011;12052;53.478;10.182;2023-02-08T13:57:00;22.25;;;9.60;;
23743;SDS011;12052;53.478;10.182;2023-02-08T13:59:35;25.92;;;10.27;;
23743;SDS011;12052;53.478;10.182;2023-02-08T14:04:40;29.02;;;10.38;;
23743;SDS011;12052;53.478;10.182;2023-02-08T14:17:43;25.42;;;9.98;;
23743;SDS011;12052;53.478;10.182;2023-02-08T14:22:56;22.45;;;10.00;;
23743;SDS011;12052;53.478;10.182;2023-02-08T14:25:26;26.35;;;11.80;;
23743;SDS011;12052;53.478;10.182;2023-02-08T14:28:02;25.27;;;10.93;;
23743;SDS011;12052;53.478;10.182;2023-02-08T14:30:31;30.65;;;12.00;;
23743;SDS011;12052;53.478;10.182;2023-02-08T14:35:25;30.63;;;12.27;;
23743;SDS011;12052;53.478;10.182;2023-02-08T14:40:50;26.77;;;10.63;;
23743;SDS011;12052;53.478;10.182;2023-02-08T14:45:44;26.30;;;11.02;;
23743;SDS011;12052;53.478;10.182;2023-02-08T14:50:51;27.42;;;11.88;;
23743;SDS011;12052;53.478;10.182;2023-02-08T14:56:01;31.08;;;12.00;;
23743;SDS011;12052;53.478;10.182;2023-02-08T14:58:48;27.67;;;12.43;;
23743;SDS011;12052;53.478;10.182;2023-02-08T15:01:19;25.80;;;11.02;;
23743;SDS011;12052;53.478;10.182;2023-02-08T15:03:49;24.98;;;11.25;;
23743;SDS011;12052;53.478;10.182;2023-02-08T15:09:13;27.88;;;12.88;;
23743;SDS011;12052;53.478;10.182;2023-02-08T15:11:58;26.90;;;11.95;;
23743;SDS011;12052;53.478;10.182;2023-02-08T15:14:26;21.00;;;10.82;;
23743;SDS011;12052;53.478;10.182;2023-02-08T15:16:53;24.95;;;11.10;;
23743;SDS011;12052;53.478;10.182;2023-02-08T15:19:28;25.58;;;11.50;;
23743;SDS011;12052;53.478;10.182;2023-02-08T15:24:53;24.67;;;10.95;;
23743;SDS011;12052;53.478;10.182;2023-02-08T15:27:22;30.75;;;11.18;;
23743;SDS011;12052;53.478;10.182;2023-02-08T15:29:50;26.02;;;11.40;;
23743;SDS011;12052;53.478;10.182;2023-02-08T15:32:16;31.65;;;11.65;;
23743;SDS011;12052;53.478;10.182;2023-02-08T15:34:44;18.77;;;9.15;;
23743;SDS011;12052;53.478;10.182;2023-02-08T15:37:17;22.92;;;10.52;;
23743;SDS011;12052;53.478;10.182;2023-02-08T15:39:49;25.83;;;10.00;;
23743;SDS011;12052;53.478;10.182;2023-02-08T15:42:20;25.65;;;10.95;;
23743;SDS011;12052;53.478;10.182;2023-02-08T15:44:48;27.08;;;10.57;;
23743;SDS011;12052;53.478;10.182;2023-02-08T15:47:19;24.55;;;11.63;;
23743;SDS011;12052;53.478;10.182;2023-02-08T15:49:51;25.17;;;10.27;;
23743;SDS011;12052;53.478;10.182;2023-02-08T15:52:20;24.92;;;11.10;;
23743;SDS011;12052;53.478;10.182;2023-02-08T15:54:48;22.92;;;11.30;;
23743;SDS011;12052;53.478;10.182;2023-02-08T15:57:20;32.78;;;12.13;;
23743;SDS011;12052;53.478;10.182;2023-02-08T15:59:47;28.67;;;12.00;;
23743;SDS011;12052;53.478;10.182;2023-02-08T16:04:51;30.70;;;12.23;;
23743;SDS011;12052;53.478;10.182;2023-02-08T16:10:00;25.83;;;11.60;;
23743;SDS011;12052;53.478;10.182;2023-02-08T16:12:26;23.08;;;9.77;;
23743;SDS011;12052;53.478;10.182;2023-02-08T16:14:53;35.53;;;12.10;;
23743;SDS011;12052;53.478;10.182;2023-02-08T16:22:57;24.63;;;10.93;;
23743;SDS011;12052;53.478;10.182;2023-02-08T16:27:58;31.05;;;12.65;;
23743;SDS011;12052;53.478;10.182;2023-02-08T16:30:24;26.23;;;11.52;;
23743;SDS011;12052;53.478;10.182;2023-02-08T16:32:50;29.58;;;11.48;;
23743;SDS011;12052;53.478;10.182;2023-02-08T16:35:23;29.83;;;12.23;;
23743;SDS011;12052;53.478;10.182;2023-02-08T16:37:54;27.38;;;11.23;;
23743;SDS011;12052;53.478;10.182;2023-02-08T16:43:21;29.60;;;12.48;;
23743;SDS011;12052;53.478;10.182;2023-02-08T16:48:33;28.80;;;11.68;;
23743;SDS011;12052;53.478;10.182;2023-02-08T16:51:04;27.52;;;10.57;;
23743;SDS011;12052;53.478;10.182;2023-02-08T16:53:31;37.25;;;13.95;;
23743;SDS011;12052;53.478;10.182;2023-02-08T16:55:58;22.00;;;10.65;;
23743;SDS011;12052;53.478;10.182;2023-02-08T16:58:24;28.33;;;11.18;;
23743;SDS011;12052;53.478;10.182;2023-02-08T17:00:50;25.77;;;11.23;;
23743;SDS011;12052;53.478;10.182;2023-02-08T17:03:16;29.45;;;12.30;;
23743;SDS011;12052;53.478;10.182;2023-02-08T17:05:43;30.98;;;12.00;;
23743;SDS011;12052;53.478;10.182;2023-02-08T17:08:16;28.10;;;12.77;;
23743;SDS011;12052;53.478;10.182;2023-02-08T17:10:44;30.70;;;12.88;;
23743;SDS011;12052;53.478;10.182;2023-02-08T17:13:12;28.70;;;11.43;;
23743;SDS011;12052;53.478;10.182;2023-02-08T17:15:38;34.38;;;13.70;;
23743;SDS011;12052;53.478;10.182;2023-02-08T17:18:03;37.83;;;14.32;;
23743;SDS011;12052;53.478;10.182;2023-02-08T17:20:30;38.30;;;16.95;;
23743;SDS011;12052;53.478;10.182;2023-02-08T17:22:58;37.17;;;15.80;;